Henfield, United Kingdom
Current Conditions -  °F | °C
As of 10:50 AM on Friday 24 Oct 2014 (Local Time) from EGKA Reporting Station
Scattered Clouds Scattered Clouds  
Wind Chill: 61°   Ceiling: Unl
Heat Index: 61°   Visibility: 6mi
Dew Point: 59°   Wind: 10mph
Humidity: 94%   Direction: 210°SSW
Pressure: 30"   Gusts: NA
Location:  50.93°N, 0.27°W
Report Text: EGKA 240950Z 21009KT 9999 SCT011 16/15 Q1016
Loading
Personal Weather Stations






























Interactive Weather Map
Tropical Storm Tracking
New forecast layout! Learn more

10-Day Weather Forecast

Advertisements
Track Severe Weather on mobile